Time;durP1;ratioP1;P1;durP2;ratioP2;P2;SDS_P1;SDS_P2;PMS_P1;PMS_P2;Temp;Humidity;BMP_temperature;BMP_pressure;BME280_temperature;BME280_humidity;BME280_pressure;Samples;Min_cycle;Max_cycle;Signal;HPM_P1;HPM_P2
2021/12/30 00:00:10;;;;;;;19.92;9.15;;;;;;;-6.09;100.00;100515.25;4982566;28;20084;-66
2021/12/30 00:02:58;;;;;;;23.35;9.50;;;;;;;-5.96;100.00;100533.22;5010376;28;20057;-64
2021/12/30 00:05:44;;;;;;;20.48;8.82;;;;;;;-6.00;100.00;100531.25;5011796;28;20053;-67
2021/12/30 00:08:29;;;;;;;21.48;8.60;;;;;;;-6.00;100.00;100526.09;4968411;28;20056;-66
2021/12/30 00:11:14;;;;;;;20.30;8.63;;;;;;;-6.02;100.00;100528.59;5012033;28;20536;-65
2021/12/30 00:13:59;;;;;;;22.67;8.77;;;;;;;-5.97;100.00;100519.41;4997232;28;20044;-66
2021/12/30 00:16:43;;;;;;;21.40;8.75;;;;;;;-6.10;100.00;100513.47;4997666;28;20139;-65
2021/12/30 00:19:28;;;;;;;20.92;8.57;;;;;;;-6.00;100.00;100514.09;5025577;28;20048;-67
2021/12/30 00:22:13;;;;;;;23.27;9.90;;;;;;;-5.87;100.00;100518.22;4997678;28;20095;-68
2021/12/30 00:25:00;;;;;;;22.85;9.40;;;;;;;-5.93;100.00;100512.75;5012066;28;20095;-66
2021/12/30 00:27:45;;;;;;;24.50;9.43;;;;;;;-5.87;100.00;100508.81;5008349;28;20167;-65
2021/12/30 00:30:30;;;;;;;19.88;8.55;;;;;;;-5.83;100.00;100515.03;5025933;28;20075;-67
2021/12/30 00:33:15;;;;;;;22.20;8.93;;;;;;;-5.77;100.00;100507.59;5011685;28;20564;-66
2021/12/30 00:36:06;;;;;;;23.40;9.60;;;;;;;-5.79;100.00;100509.19;5012131;28;20060;-66
2021/12/30 00:38:50;;;;;;;22.00;8.57;;;;;;;-5.92;100.00;100511.94;5025051;28;20056;-68
2021/12/30 00:41:35;;;;;;;24.20;8.90;;;;;;;-5.88;100.00;100503.56;5025139;28;20043;-70
2021/12/30 00:44:19;;;;;;;19.27;8.15;;;;;;;-5.96;100.00;100505.72;5024927;28;20162;-67
2021/12/30 00:47:04;;;;;;;24.38;9.50;;;;;;;-5.91;100.00;100504.28;5008227;28;20047;-64
2021/12/30 00:49:48;;;;;;;20.08;8.65;;;;;;;-5.89;100.00;100507.81;5026291;28;20176;-68
2021/12/30 00:52:34;;;;;;;21.52;8.65;;;;;;;-5.76;100.00;100506.78;5024509;28;20836;-67
2021/12/30 00:55:20;;;;;;;21.65;8.57;;;;;;;-5.73;100.00;100515.56;4989827;28;20103;-65
2021/12/30 00:58:05;;;;;;;22.52;9.48;;;;;;;-5.82;100.00;100504.78;4986221;28;20055;-63
2021/12/30 01:00:52;;;;;;;21.08;8.55;;;;;;;-5.77;100.00;100503.31;5000382;28;20100;-66
2021/12/30 01:03:36;;;;;;;20.52;8.30;;;;;;;-5.77;100.00;100499.84;4989693;28;20165;-66
2021/12/30 01:06:20;;;;;;;21.08;8.85;;;;;;;-5.67;100.00;100505.59;4988159;28;20509;-67
2021/12/30 01:09:06;;;;;;;15.80;7.68;;;;;;;-5.60;100.00;100510.31;5003353;28;20049;-64
2021/12/30 01:11:51;;;;;;;20.70;8.93;;;;;;;-5.56;100.00;100524.25;5004328;28;20200;-65
2021/12/30 01:14:36;;;;;;;;;;;;;;;-5.48;100.00;100523.88;5004357;28;20120;-65
2021/12/30 01:17:41;;;;;;;22.73;8.70;;;;;;;-5.54;100.00;100514.91;4985579;28;19924;-65
2021/12/30 01:20:26;;;;;;;21.15;8.05;;;;;;;-5.49;100.00;100516.06;4986526;28;20049;-67
2021/12/30 01:23:10;;;;;;;21.10;8.75;;;;;;;-5.51;100.00;100513.38;4984965;28;20521;-66
2021/12/30 01:25:58;;;;;;;21.15;8.77;;;;;;;-5.46;100.00;100511.94;5003636;28;20188;-66
2021/12/30 01:28:43;;;;;;;21.92;8.85;;;;;;;-5.44;100.00;100505.16;4999604;28;20105;-64
2021/12/30 01:31:28;;;;;;;17.52;8.00;;;;;;;-5.42;100.00;100503.53;5002302;28;20686;-63
2021/12/30 01:34:12;;;;;;;20.40;9.27;;;;;;;-5.42;100.00;100495.78;5004748;28;21449;-65
2021/12/30 01:37:00;;;;;;;20.45;8.45;;;;;;;-5.34;100.00;100486.75;5005058;28;20053;-66
2021/12/30 01:39:45;;;;;;;18.98;8.05;;;;;;;-5.27;100.00;100488.88;4989779;28;20141;-64
2021/12/30 01:42:32;;;;;;;19.10;8.93;;;;;;;-5.28;100.00;100494.84;5000950;28;20390;-66
2021/12/30 01:45:17;;;;;;;20.77;8.48;;;;;;;-5.33;100.00;100487.66;4984589;28;20208;-67
2021/12/30 01:48:02;;;;;;;21.85;8.40;;;;;;;-5.36;100.00;100488.38;5003684;28;20073;-63
2021/12/30 01:50:52;;;;;;;23.83;8.93;;;;;;;-5.30;100.00;100485.25;5003431;28;20076;-67
2021/12/30 01:53:37;;;;;;;21.27;8.65;;;;;;;-5.38;100.00;100487.41;5004651;28;20173;-67
2021/12/30 01:56:22;;;;;;;19.08;8.43;;;;;;;-5.37;100.00;100473.66;4999424;28;20577;-67
2021/12/30 01:59:07;;;;;;;;;;;;;;;-5.17;100.00;100480.78;5009058;28;20063;-66
2021/12/30 02:01:56;;;;;;;20.40;8.18;;;;;;;-5.50;100.00;100483.28;5022379;28;19983;-66
2021/12/30 02:04:41;;;;;;;17.95;8.27;;;;;;;-5.45;100.00;100472.38;5008746;28;20075;-67
2021/12/30 02:07:26;;;;;;;18.77;7.53;;;;;;;-5.31;100.00;100480.84;4997359;28;20091;-67
2021/12/30 02:10:13;;;;;;;20.70;8.27;;;;;;;-5.25;100.00;100470.84;5008250;28;20120;-66
2021/12/30 02:12:59;;;;;;;20.70;8.73;;;;;;;-5.18;100.00;100481.59;4997517;28;20137;-66
2021/12/30 02:15:44;;;;;;;19.73;8.52;;;;;;;-5.15;100.00;100475.69;5021745;28;20087;-65
2021/12/30 02:18:30;;;;;;;17.02;7.80;;;;;;;-5.11;100.00;100472.44;5025152;28;20140;-65
2021/12/30 02:21:16;;;;;;;21.50;7.93;;;;;;;-5.05;100.00;100470.22;5027340;28;20135;-68
2021/12/30 02:24:00;;;;;;;17.73;8.30;;;;;;;-5.02;100.00;100481.59;5024397;28;20187;-68
2021/12/30 02:26:45;;;;;;;18.55;8.18;;;;;;;-4.97;100.00;100476.66;4991652;28;20095;-67
2021/12/30 02:29:30;;;;;;;19.27;8.52;;;;;;;-5.02;100.00;100472.97;4997393;28;20052;-70
2021/12/30 02:32:14;;;;;;;22.02;7.65;;;;;;;-5.04;100.00;100457.38;4984534;28;20092;-70
2021/12/30 02:34:58;;;;;;;20.02;7.88;;;;;;;-4.98;100.00;100468.00;5006685;28;20080;-68
2021/12/30 02:37:43;;;;;;;19.42;8.73;;;;;;;-4.94;100.00;100479.41;5009297;28;20568;-69
2021/12/30 02:40:33;;;;;;;20.15;8.40;;;;;;;-4.87;100.00;100476.31;5010631;28;20194;-69
2021/12/30 02:43:21;;;;;;;20.40;8.68;;;;;;;-4.92;100.00;100473.50;5026785;28;20641;-64
2021/12/30 02:46:06;;;;;;;19.73;8.35;;;;;;;-4.92;100.00;100467.44;5026866;28;20045;-67
2021/12/30 02:48:52;;;;;;;21.55;9.27;;;;;;;-4.96;100.00;100468.09;5025783;28;20589;-67
2021/12/30 02:51:37;;;;;;;22.42;8.38;;;;;;;-4.95;100.00;100464.69;4997635;28;20048;-69
2021/12/30 02:54:22;;;;;;;18.13;8.20;;;;;;;-4.95;100.00;100460.41;4989014;28;20833;-68
2021/12/30 02:57:07;;;;;;;26.08;9.18;;;;;;;-4.96;100.00;100455.16;5028914;28;20476;-64
2021/12/30 02:59:52;;;;;;;17.88;7.85;;;;;;;-4.94;100.00;100463.91;5029083;28;20524;-62
2021/12/30 03:02:38;;;;;;;19.40;7.38;;;;;;;-4.90;100.00;100464.13;5027333;28;20053;-66
2021/12/30 03:05:24;;;;;;;21.65;8.77;;;;;;;-4.96;100.00;100455.16;5014976;28;20431;-64
2021/12/30 03:08:09;;;;;;;20.63;9.05;;;;;;;-4.87;100.00;100463.38;5027054;28;20107;-65
2021/12/30 03:10:54;;;;;;;22.75;8.35;;;;;;;-4.82;100.00;100455.88;5028380;28;20060;-66
2021/12/30 03:13:42;;;;;;;23.70;9.15;;;;;;;-4.94;100.00;100440.63;4993794;28;20080;-66
2021/12/30 03:16:32;;;;;;;22.63;8.55;;;;;;;-4.83;100.00;100454.09;5009801;28;20536;-66
2021/12/30 03:19:16;;;;;;;20.45;8.35;;;;;;;-4.81;100.00;100448.19;5028310;28;20459;-68
2021/12/30 03:22:01;;;;;;;21.75;8.63;;;;;;;-4.82;100.00;100450.69;5011255;28;20567;-65
2021/12/30 03:24:45;;;;;;;20.95;9.60;;;;;;;-4.82;100.00;100442.94;5026916;28;20094;-66
2021/12/30 03:27:30;;;;;;;19.65;9.02;;;;;;;-4.80;100.00;100429.28;4998030;28;20060;-67
2021/12/30 03:30:17;;;;;;;17.33;8.60;;;;;;;-4.71;100.00;100434.03;5026556;28;20068;-67
2021/12/30 03:33:02;;;;;;;21.77;9.63;;;;;;;-4.74;100.00;100437.34;5013053;28;20123;-66
2021/12/30 03:35:47;;;;;;;23.27;9.68;;;;;;;-4.75;100.00;100443.31;5011061;28;20129;-65
2021/12/30 03:38:46;;;;;;;24.33;9.27;;;;;;;-4.67;100.00;100447.16;4985881;28;20132;-65
2021/12/30 03:41:31;;;;;;;20.63;9.95;;;;;;;-4.70;100.00;100448.72;5012569;28;20098;-64
2021/12/30 03:44:16;;;;;;;21.42;9.10;;;;;;;-4.71;100.00;100439.22;5023004;28;20080;-67
2021/12/30 03:47:00;;;;;;;26.23;9.68;;;;;;;-4.71;100.00;100446.97;5013170;28;20072;-65
2021/12/30 03:49:46;;;;;;;;;;;;;;;-4.58;100.00;100439.91;4993000;28;20099;-68
2021/12/30 03:52:31;;;;;;;29.05;9.80;;;;;;;-4.67;100.00;100435.97;5012632;28;19932;-67
2021/12/30 03:55:17;;;;;;;;;;;;;;;-4.59;100.00;100435.50;5025026;28;20148;-65
2021/12/30 03:58:02;;;;;;;;;;;;;;;-4.62;100.00;100425.03;5010626;28;19928;-67
2021/12/30 04:00:47;;;;;;;21.17;9.15;;;;;;;-4.67;100.00;100431.66;4989645;28;20397;-68
2021/12/30 04:03:32;;;;;;;20.45;9.07;;;;;;;-4.64;100.00;100420.59;5005602;28;20129;-69
2021/12/30 04:06:18;;;;;;;23.58;8.95;;;;;;;-4.57;100.00;100430.41;4980113;28;20112;-68
2021/12/30 04:09:05;;;;;;;24.83;9.35;;;;;;;-4.61;100.00;100431.97;4989043;28;20053;-67
2021/12/30 04:11:50;;;;;;;22.02;8.95;;;;;;;-4.65;100.00;100419.69;5006648;28;20121;-67
2021/12/30 04:14:36;;;;;;;21.13;8.77;;;;;;;-4.55;100.00;100421.06;5006180;28;20115;-67
2021/12/30 04:17:22;;;;;;;22.02;9.00;;;;;;;-4.53;100.00;100420.31;4989088;28;20057;-69
2021/12/30 04:20:10;;;;;;;26.85;9.43;;;;;;;-4.51;100.00;100426.44;4977797;28;20092;-67
2021/12/30 04:22:55;;;;;;;23.00;9.27;;;;;;;-4.45;100.00;100431.03;5005143;28;20056;-69
2021/12/30 04:25:40;;;;;;;22.83;9.80;;;;;;;-4.61;100.00;100412.97;4992370;28;20184;-69
2021/12/30 04:28:25;;;;;;;20.77;8.80;;;;;;;-4.61;100.00;100412.97;5002854;28;20053;-69
2021/12/30 04:31:11;;;;;;;22.00;9.07;;;;;;;-4.52;100.00;100418.63;5005686;28;20052;-65
2021/12/30 04:33:56;;;;;;;21.52;8.95;;;;;;;-4.52;100.00;100418.63;5005146;28;20056;-65
2021/12/30 04:36:41;;;;;;;20.08;8.95;;;;;;;-4.49;100.00;100421.34;4992047;28;20111;-66
2021/12/30 04:39:29;;;;;;;22.25;8.80;;;;;;;-4.51;100.00;100413.50;5005819;28;20061;-66
2021/12/30 04:42:13;;;;;;;25.13;9.70;;;;;;;-4.70;100.00;100409.94;5002442;28;20701;-66
2021/12/30 04:44:58;;;;;;;19.95;8.27;;;;;;;-4.88;100.00;100404.72;5006204;28;20064;-69
2021/12/30 04:47:43;;;;;;;22.60;9.95;;;;;;;-4.71;100.00;100421.09;5007002;28;20120;-66
2021/12/30 04:50:28;;;;;;;;;;;;;;;-4.65;100.00;100417.13;4978803;28;20053;-66
2021/12/30 04:53:14;;;;;;;20.75;8.02;;;;;;;-4.58;100.00;100419.19;5007162;28;19924;-68
2021/12/30 04:55:59;;;;;;;18.73;9.30;;;;;;;-4.62;100.00;100419.88;5005244;28;20060;-68
2021/12/30 04:58:44;;;;;;;21.77;8.43;;;;;;;-4.69;100.00;100430.72;5006483;28;20100;-67
2021/12/30 05:01:29;;;;;;;19.88;9.07;;;;;;;-5.12;100.00;100430.22;4988468;28;20123;-69
2021/12/30 05:04:14;;;;;;;26.33;9.25;;;;;;;-5.14;100.00;100431.84;4993178;28;20057;-67
2021/12/30 05:06:59;;;;;;;24.83;9.30;;;;;;;-5.25;100.00;100429.50;5006159;28;20481;-68
2021/12/30 05:09:44;;;;;;;22.30;8.63;;;;;;;-5.41;100.00;100425.22;4970316;28;20061;-68
2021/12/30 05:12:28;;;;;;;23.05;9.35;;;;;;;-5.47;100.00;100429.19;4990945;28;20414;-67
2021/12/30 05:15:13;;;;;;;21.40;9.30;;;;;;;-5.23;100.00;100415.84;4984890;28;20064;-66
2021/12/30 05:17:58;;;;;;;21.80;8.65;;;;;;;-5.25;100.00;100421.75;4990577;28;20065;-67
2021/12/30 05:20:44;;;;;;;21.27;9.10;;;;;;;-5.13;100.00;100430.16;4997236;28;20104;-70
2021/12/30 05:23:29;;;;;;;21.48;9.32;;;;;;;-5.28;100.00;100416.44;4962041;28;20127;-69
2021/12/30 05:26:16;;;;;;;22.42;9.52;;;;;;;-5.41;100.00;100422.63;4983217;28;20052;-71
2021/12/30 05:29:03;;;;;;;26.10;9.20;;;;;;;-5.28;100.00;100419.00;5005326;28;20532;-72
2021/12/30 05:31:48;;;;;;;25.08;10.40;;;;;;;-5.32;100.00;100415.38;4991365;28;20099;-72
2021/12/30 05:34:34;;;;;;;20.17;9.25;;;;;;;-5.33;100.00;100423.06;5004636;28;20469;-72
2021/12/30 05:37:19;;;;;;;;;;;;;;;-5.11;100.00;100413.91;5007146;28;20437;-69
2021/12/30 05:40:08;;;;;;;21.83;9.13;;;;;;;-5.31;100.00;100418.84;4993917;28;19927;-70
2021/12/30 05:42:53;;;;;;;24.95;9.80;;;;;;;-5.24;100.00;100413.19;5010332;28;20116;-68
2021/12/30 05:45:38;;;;;;;22.92;9.95;;;;;;;-5.09;100.00;100414.88;4985007;28;20045;-73
2021/12/30 05:48:23;;;;;;;22.45;9.40;;;;;;;-5.03;100.00;100412.59;5008982;28;20560;-70
2021/12/30 05:51:07;;;;;;;;;;;;;;;-5.01;100.00;100416.16;4996119;28;20528;-70
2021/12/30 05:53:52;;;;;;;25.35;9.25;;;;;;;-5.32;100.00;100411.91;4979566;28;20023;-68
2021/12/30 05:56:37;;;;;;;20.10;9.48;;;;;;;-5.29;100.00;100409.50;4990303;28;20057;-70
2021/12/30 05:59:22;;;;;;;23.25;9.90;;;;;;;-5.26;100.00;100405.34;5001746;28;20076;-68
2021/12/30 06:02:07;;;;;;;25.45;9.77;;;;;;;-5.07;100.00;100418.41;4999943;28;20048;-70
2021/12/30 06:04:52;;;;;;;;;;;;;;;-4.87;100.00;100420.31;5001493;28;20096;-69
2021/12/30 06:07:37;;;;;;;24.05;9.70;;;;;;;-4.84;100.00;100419.59;5028545;28;20293;-68
2021/12/30 06:10:21;;;;;;;26.25;10.98;;;;;;;-5.03;100.00;100422.94;5000384;28;20092;-68
2021/12/30 06:13:06;;;;;;;27.30;11.35;;;;;;;-5.03;100.00;100422.03;5010456;28;20047;-78
2021/12/30 06:15:51;;;;;;;;;;;;;;;-4.83;100.00;100423.94;5030490;28;20133;-70
2021/12/30 06:18:36;;;;;;;33.40;12.50;;;;;;;-5.03;100.00;100417.78;5029888;28;19963;-70
2021/12/30 06:21:20;;;;;;;26.30;10.40;;;;;;;-4.98;100.00;100423.19;5013804;28;20088;-69
2021/12/30 06:24:05;;;;;;;;;;;;;;;-4.82;100.00;100423.16;5002897;28;20100;-69
2021/12/30 06:26:50;;;;;;;26.08;10.52;;;;;;;-4.87;100.00;100424.59;5000180;28;20027;-75
2021/12/30 06:29:36;;;;;;;28.85;11.35;;;;;;;-4.98;100.00;100424.06;5026962;28;20052;-67
2021/12/30 06:32:21;;;;;;;28.55;11.88;;;;;;;-4.91;100.00;100436.50;5016428;28;20053;-67
2021/12/30 06:35:10;;;;;;;26.20;11.45;;;;;;;-4.82;100.00;100438.66;5014278;28;20141;-67
2021/12/30 06:37:54;;;;;;;29.13;11.13;;;;;;;-4.62;100.00;100437.97;5023463;28;20060;-67
2021/12/30 06:40:40;;;;;;;27.00;11.48;;;;;;;-4.53;100.00;100438.41;4996752;28;20052;-66
2021/12/30 06:43:25;;;;;;;27.23;11.45;;;;;;;-4.49;100.00;100434.28;4999672;28;20527;-67
2021/12/30 06:46:10;;;;;;;29.45;11.20;;;;;;;-4.44;100.00;100445.75;5011899;28;20532;-67
2021/12/30 06:48:55;;;;;;;23.77;10.73;;;;;;;-4.56;100.00;100447.75;4997949;28;20454;-67
2021/12/30 06:51:39;;;;;;;26.42;10.90;;;;;;;-4.73;100.00;100444.31;4996153;28;20096;-71
2021/12/30 06:54:23;;;;;;;25.90;10.23;;;;;;;-4.62;100.00;100452.59;4986237;28;20056;-70
2021/12/30 06:57:12;;;;;;;22.27;10.07;;;;;;;-4.41;100.00;100448.47;4999240;28;20062;-71
2021/12/30 06:59:58;;;;;;;22.80;10.05;;;;;;;-4.36;100.00;100453.06;5009483;28;20528;-69
2021/12/30 07:02:44;;;;;;;28.58;11.57;;;;;;;-4.46;100.00;100437.03;5011462;28;20179;-68
2021/12/30 07:05:29;;;;;;;21.23;9.40;;;;;;;-4.50;100.00;100432.50;5011688;28;20125;-66
2021/12/30 07:08:14;;;;;;;19.77;9.40;;;;;;;-4.61;100.00;100433.66;5013258;28;20472;-67
2021/12/30 07:10:59;;;;;;;25.83;9.93;;;;;;;-4.51;100.00;100423.84;5009941;28;20080;-66
2021/12/30 07:13:43;;;;;;;23.42;10.13;;;;;;;-4.32;100.00;100425.66;5013165;28;20122;-66
2021/12/30 07:16:28;;;;;;;24.80;9.73;;;;;;;-4.24;100.00;100426.91;5012662;28;20056;-68
2021/12/30 07:19:14;;;;;;;28.00;11.35;;;;;;;-4.23;100.00;100429.59;5011975;28;20060;-69
2021/12/30 07:22:00;;;;;;;25.50;10.20;;;;;;;-4.28;100.00;100440.53;4983560;28;20576;-72
2021/12/30 07:24:44;;;;;;;24.52;10.88;;;;;;;-4.32;100.00;100431.69;5001423;28;20184;-68
2021/12/30 07:27:30;;;;;;;24.55;9.93;;;;;;;-4.10;100.00;100437.13;4998386;28;20450;-70
2021/12/30 07:30:17;;;;;;;22.65;10.45;;;;;;;-4.11;100.00;100432.75;4999015;28;20051;-67
2021/12/30 07:33:06;;;;;;;25.20;10.68;;;;;;;-4.02;100.00;100442.66;5028384;28;20047;-68
2021/12/30 07:35:51;;;;;;;28.80;11.73;;;;;;;-3.87;100.00;100439.09;4999748;28;20120;-67
2021/12/30 07:38:35;;;;;;;28.83;11.32;;;;;;;-3.87;100.00;100436.50;5021070;28;20053;-67
2021/12/30 07:41:20;;;;;;;24.38;11.40;;;;;;;-3.93;100.00;100441.38;5013163;28;20079;-62
2021/12/30 07:44:05;;;;;;;24.20;10.95;;;;;;;-3.81;100.00;100436.78;5023776;28;20099;-69
2021/12/30 07:46:50;;;;;;;26.77;10.50;;;;;;;-3.63;100.00;100439.34;5024539;28;20076;-69
2021/12/30 07:49:36;;;;;;;27.77;11.30;;;;;;;-3.72;100.00;100441.50;4981002;28;20056;-69
2021/12/30 07:52:21;;;;;;;29.17;11.50;;;;;;;-3.67;100.00;100435.72;4990792;28;20061;-68
2021/12/30 07:55:07;;;;;;;24.38;10.05;;;;;;;-3.48;100.00;100443.50;5026420;28;20048;-71
2021/12/30 07:57:55;;;;;;;26.98;11.80;;;;;;;-3.51;100.00;100442.50;4996126;28;20060;-72
2021/12/30 08:00:40;;;;;;;29.05;11.65;;;;;;;-3.41;100.00;100440.38;4995665;28;20119;-68
2021/12/30 08:03:26;;;;;;;27.27;11.15;;;;;;;-3.46;100.00;100448.75;5007141;28;20240;-66
2021/12/30 08:06:10;;;;;;;27.98;11.63;;;;;;;-3.38;100.00;100444.81;4997411;28;20071;-66
2021/12/30 08:08:55;;;;;;;;;;;;;;;-3.28;100.00;100454.81;4987133;28;20114;-68
2021/12/30 08:11:41;;;;;;;26.67;11.82;;;;;;;-4.28;100.00;100446.56;5005384;28;20412;-72
2021/12/30 08:14:31;;;;;;;23.85;11.00;;;;;;;-4.19;100.00;100453.91;4984338;28;20056;-70
2021/12/30 08:17:16;;;;;;;26.80;11.85;;;;;;;-4.85;100.00;100443.69;4998686;28;20119;-68
2021/12/30 08:20:07;;;;;;;31.88;12.00;;;;;;;-4.96;100.00;100452.56;5012146;28;20076;-72
2021/12/30 08:22:56;;;;;;;25.88;12.25;;;;;;;-4.78;100.00;100459.56;4997366;28;20413;-67
2021/12/30 08:25:42;;;;;;;29.00;12.50;;;;;;;-4.90;100.00;100448.59;4994905;28;20906;-69
2021/12/30 08:28:27;;;;;;;31.00;12.63;;;;;;;-5.05;100.00;100458.19;4995858;28;20052;-70
2021/12/30 08:31:13;;;;;;;31.52;12.48;;;;;;;-4.91;100.00;100452.00;5009998;28;20083;-70
2021/12/30 08:33:58;;;;;;;33.80;13.43;;;;;;;-4.76;100.00;100446.72;4996936;28;20061;-72
2021/12/30 08:36:43;;;;;;;31.00;12.65;;;;;;;-4.49;100.00;100440.34;5010083;28;20051;-71
2021/12/30 08:39:29;;;;;;;28.40;12.65;;;;;;;-4.98;100.00;100434.41;5009770;28;20052;-72
2021/12/30 08:42:23;;;;;;;29.92;13.13;;;;;;;-4.68;100.00;100437.66;5011891;28;20068;-68
2021/12/30 08:45:10;;;;;;;27.00;13.75;;;;;;;-4.82;100.00;100434.38;5025559;28;20048;-68
2021/12/30 08:47:55;;;;;;;30.83;12.55;;;;;;;-4.45;100.00;100431.91;5023211;28;20115;-74
2021/12/30 08:50:40;;;;;;;33.75;13.98;;;;;;;-4.03;100.00;100434.00;4987729;28;20524;-70
2021/12/30 08:53:25;;;;;;;;;;;;;;;-3.83;100.00;100427.16;5006093;28;20052;-68
2021/12/30 08:56:14;;;;;;;34.30;14.10;;;;;;;-3.81;100.00;100425.56;5015365;28;19994;-77
2021/12/30 08:58:59;;;;;;;33.20;14.93;;;;;;;-3.68;100.00;100412.34;4983455;28;20084;-70
2021/12/30 09:01:43;;;;;;;28.73;13.25;;;;;;;-3.48;100.00;100425.38;5023686;28;20536;-67
2021/12/30 09:04:28;;;;;;;34.00;15.18;;;;;;;-3.87;100.00;100413.19;4992202;28;20536;-73
2021/12/30 09:07:18;;;;;;;33.15;14.52;;;;;;;-4.04;100.00;100421.84;4968328;28;20048;-72
2021/12/30 09:10:06;;;;;;;30.02;13.27;;;;;;;-3.92;100.00;100418.97;5024419;28;20048;-70
2021/12/30 09:12:53;;;;;;;32.45;13.48;;;;;;;-3.96;100.00;100415.34;5010377;28;20136;-69
2021/12/30 09:25:24;;;;;;;30.20;12.60;;;;;;;-4.38;100.00;100425.34;5005056;28;20184;-68
2021/12/30 09:28:12;;;;;;;27.77;13.00;;;;;;;-4.55;100.00;100427.09;5004375;28;20532;-63
2021/12/30 09:30:57;;;;;;;28.85;11.52;;;;;;;-4.99;100.00;100421.38;4991889;28;20053;-64
2021/12/30 09:33:42;;;;;;;32.53;13.95;;;;;;;-5.19;100.00;100433.28;4988541;28;20568;-63
2021/12/30 09:36:31;;;;;;;31.02;13.93;;;;;;;-4.70;100.00;100426.34;4990389;28;20136;-66
2021/12/30 09:39:16;;;;;;;32.28;14.10;;;;;;;-4.80;100.00;100429.28;4980214;28;20104;-71
2021/12/30 09:42:01;;;;;;;31.58;13.85;;;;;;;-4.64;100.00;100421.47;4992916;28;20048;-71
2021/12/30 09:44:46;;;;;;;29.02;12.60;;;;;;;-5.06;100.00;100424.50;5004709;28;20053;-68
2021/12/30 09:47:33;;;;;;;36.00;14.43;;;;;;;-5.01;100.00;100429.09;4997345;28;20147;-65
2021/12/30 09:50:25;;;;;;;32.55;13.68;;;;;;;-4.67;100.00;100428.19;4973788;28;20080;-76
2021/12/30 09:53:10;;;;;;;37.13;15.82;;;;;;;-4.80;100.00;100424.09;5005930;28;20590;-65
2021/12/30 09:55:59;;;;;;;33.70;13.52;;;;;;;-5.15;100.00;100406.81;5001409;28;20049;-66
2021/12/30 09:58:45;;;;;;;38.90;16.05;;;;;;;-5.02;100.00;100403.16;5004994;28;20095;-64
2021/12/30 10:01:29;;;;;;;31.35;15.02;;;;;;;-4.95;100.00;100398.38;5006721;28;20052;-65
2021/12/30 10:04:14;;;;;;;31.65;12.68;;;;;;;-4.93;100.00;100399.34;5006151;28;20092;-64
2021/12/30 10:07:00;;;;;;;30.80;13.07;;;;;;;-4.79;100.00;100393.97;5006270;28;20088;-66
2021/12/30 10:09:59;;;;;;;27.50;12.25;;;;;;;-4.60;100.00;100397.53;5004041;28;20053;-70
2021/12/30 10:12:45;;;;;;;25.08;11.95;;;;;;;-4.39;100.00;100396.00;4995660;28;20051;-63
2021/12/30 10:15:41;;;;;;;26.67;11.65;;;;;;;-4.55;100.00;100396.03;5003314;28;20104;-65
2021/12/30 10:18:42;;;;;;;27.50;11.20;;;;;;;-4.46;100.00;100391.34;5004682;28;20056;-65
2021/12/30 10:21:41;;;;;;;28.85;12.40;;;;;;;-4.60;100.00;100394.06;4967008;28;20417;-69
2021/12/30 10:24:32;;;;;;;29.88;11.60;;;;;;;-4.65;100.00;100382.59;5021207;28;20060;-69
2021/12/30 10:27:28;;;;;;;25.10;11.00;;;;;;;-4.24;100.00;100388.09;5014934;28;20485;-65
2021/12/30 10:30:32;;;;;;;29.52;12.05;;;;;;;-4.46;100.00;100388.75;5016643;28;20052;-66
2021/12/30 10:33:22;;;;;;;22.48;10.85;;;;;;;-4.40;100.00;100383.00;5016823;28;20649;-69
2021/12/30 10:36:28;;;;;;;21.52;10.65;;;;;;;-4.49;100.00;100380.84;4989317;28;20520;-65
2021/12/30 10:39:19;;;;;;;24.15;10.90;;;;;;;-4.44;100.00;100381.06;5001764;28;20589;-66
2021/12/30 10:42:07;;;;;;;24.10;11.88;;;;;;;-4.39;100.00;100374.41;5006992;28;20464;-67
2021/12/30 10:44:56;;;;;;;26.58;12.07;;;;;;;-4.32;100.00;100358.38;4996376;28;20204;-65
2021/12/30 10:47:54;;;;;;;26.05;11.30;;;;;;;-4.25;100.00;100368.16;5021065;28;20060;-65
2021/12/30 10:50:41;;;;;;;24.92;11.23;;;;;;;-4.19;100.00;100353.84;5009830;28;20512;-64
2021/12/30 10:53:30;;;;;;;23.58;10.52;;;;;;;-3.85;100.00;100353.66;5022530;28;20056;-64
2021/12/30 10:56:25;;;;;;;28.77;12.07;;;;;;;-3.68;100.00;100353.63;4984646;28;20107;-64
2021/12/30 10:59:18;;;;;;;23.10;10.83;;;;;;;-3.37;100.00;100348.97;5010462;28;20304;-65
2021/12/30 11:02:09;;;;;;;22.95;10.68;;;;;;;-3.34;100.00;100346.53;5006784;28;20108;-69
2021/12/30 11:05:04;;;;;;;27.92;11.50;;;;;;;-3.42;100.00;100340.13;4997003;28;20397;-62
2021/12/30 11:07:52;;;;;;;;;;;;;;;-3.31;100.00;100346.69;5010375;28;20509;-62
2021/12/30 11:10:38;;;;;;;34.13;14.85;;;;;;;-3.35;100.00;100339.59;4992624;28;19928;-71
2021/12/30 11:13:23;;;;;;;32.75;14.32;;;;;;;-3.32;100.00;100336.25;5006038;28;20057;-66
2021/12/30 11:16:08;;;;;;;39.83;15.23;;;;;;;-3.60;100.00;100335.84;5005595;28;20099;-64
2021/12/30 11:18:55;;;;;;;36.08;15.40;;;;;;;-3.36;100.00;100344.69;4974988;28;20053;-63
2021/12/30 11:21:42;;;;;;;39.15;16.35;;;;;;;-3.06;100.00;100341.72;4988945;28;20598;-65
2021/12/30 11:24:30;;;;;;;35.50;15.25;;;;;;;-3.20;100.00;100335.06;4996984;28;20068;-64
2021/12/30 11:27:17;;;;;;;39.53;15.07;;;;;;;-3.02;100.00;100346.22;5003729;28;20051;-67
2021/12/30 11:30:12;;;;;;;38.13;17.65;;;;;;;-2.83;100.00;100346.16;4983438;28;20100;-66
2021/12/30 11:32:57;;;;;;;36.25;16.10;;;;;;;-2.94;100.00;100346.50;5008549;28;20099;-63
2021/12/30 11:35:42;;;;;;;39.70;17.73;;;;;;;-2.74;100.00;100348.22;5006052;28;20119;-68
2021/12/30 11:38:26;;;;;;;41.85;17.38;;;;;;;-2.69;100.00;100347.59;4992942;28;20064;-65
2021/12/30 11:41:24;;;;;;;36.50;16.25;;;;;;;-2.46;100.00;100339.03;5014432;28;20155;-66
2021/12/30 11:44:09;;;;;;;43.05;16.73;;;;;;;-2.49;100.00;100338.91;4996584;28;20692;-68
2021/12/30 11:46:54;;;;;;;32.65;14.02;;;;;;;-2.49;100.00;100338.06;5011648;28;20044;-70
2021/12/30 11:50:15;;;;;;;31.43;14.40;;;;;;;-2.36;100.00;100335.09;5010193;28;20053;-67
2021/12/30 11:53:13;;;;;;;34.65;14.38;;;;;;;-2.91;100.00;100334.59;4940620;28;20293;-66
2021/12/30 11:56:11;;;;;;;35.90;14.63;;;;;;;-3.19;100.00;100334.25;4952838;28;20181;-65
2021/12/30 11:58:58;;;;;;;27.27;13.23;;;;;;;-3.37;100.00;100330.84;4964467;28;20064;-64
2021/12/30 12:01:45;;;;;;;29.80;12.98;;;;;;;-3.24;100.00;100325.34;4967194;28;20049;-66
2021/12/30 12:04:29;;;;;;;30.48;13.68;;;;;;;-2.99;100.00;100330.78;4967240;28;20050;-66
2021/12/30 12:07:14;;;;;;;28.60;12.57;;;;;;;-2.94;100.00;100324.06;4939021;28;20121;-70
2021/12/30 12:10:15;;;;;;;27.58;11.82;;;;;;;-2.95;100.00;100319.72;4952787;28;20058;-66
2021/12/30 12:13:30;;;;;;;27.65;12.82;;;;;;;-2.69;100.00;100319.06;4966138;28;20212;-66
2021/12/30 12:16:17;;;;;;;32.13;12.43;;;;;;;-2.78;100.00;100325.56;4939412;28;20152;-67
2021/12/30 12:19:08;;;;;;;28.25;12.35;;;;;;;-2.65;100.00;100315.75;4966771;28;20109;-67
2021/12/30 12:21:53;;;;;;;32.83;13.18;;;;;;;-2.50;100.00;100318.13;4942424;28;20109;-66
2021/12/30 12:24:40;;;;;;;29.25;12.52;;;;;;;-2.66;100.00;100318.28;4963442;28;20061;-64
2021/12/30 12:27:34;;;;;;;26.60;12.95;;;;;;;-2.88;100.00;100316.56;4940805;28;20136;-68
2021/12/30 12:30:26;;;;;;;24.90;12.10;;;;;;;-2.71;100.00;100318.13;4966992;28;20061;-64
2021/12/30 12:33:33;;;;;;;31.30;13.15;;;;;;;-2.61;100.00;100324.56;4985060;28;20205;-69
2021/12/30 12:36:33;;;;;;;30.40;14.30;;;;;;;-2.72;100.00;100329.34;4981613;28;20564;-66
2021/12/30 12:39:38;;;;;;;29.20;13.73;;;;;;;-2.93;100.00;100324.97;4980293;28;20101;-66
2021/12/30 12:42:51;;;;;;;27.83;13.65;;;;;;;-2.92;100.00;100327.63;4969233;28;20053;-65
2021/12/30 12:45:50;;;;;;;25.02;11.27;;;;;;;-2.90;100.00;100328.56;4981895;28;20053;-64
2021/12/30 12:48:39;;;;;;;24.92;12.02;;;;;;;-2.61;100.00;100332.38;4973355;28;20041;-66